x

Cape San Martin - 55nm West Nw Of Morro Bay, Ca (46028) Wave Buoy

7:50am - Thu 30th Mar 2017 All times are PDT. -7 hours from GMT.

  • Sig Wave height 9.5ft
  • Swell Direction
  • Peak Period 14s
  • Average Period 7s
  • Wind
    27mph, 31mph gusts
  • Sea Temp 54°f
  • Air Temp 55°f
  • Sea Pressure 1018.3mb
  • Cape San Martin - 55nm West Nw Of Morro Bay, Ca
  • Cape San Martin - 55nm West Nw Of Morro Bay, Ca

More Historic Weather Station data

Upgrade to MSW Pro to gain access to the past 30 days of data for over 8000 Wavebouys and Weather Stations around the globe.

Join Pro

Comparision Forecast

View Surf forecast
   
Thu 03/30 7:50am 9.5ft 14s 7s 27 31 mph 1018.3mb 54f 55f
6:50am 10ft 15s 8s 25 29 mph 1017.9mb 54f 55f
5:50am 11ft 15s 8s 25 29 mph 1018.1mb 54f 55f
4:50am 10.5ft 14s 8s 22 29 mph 1018.4mb 54f 55f
3:50am 10.5ft 14s 8s 22 27 mph 1018.5mb 54f 55f
2:50am 11.5ft 15s 8s 25 31 mph 1019.1mb 54f 55f
1:50am 11ft 15s 7s 29 34 mph 1018.6mb 54f 55f
12:50am 12ft 16s 8s 31 38 mph 1018.4mb 54f 55f
Wed 03/29 11:50pm 12ft 15s 8s 27 31 mph 1018.6mb 54f 55f
10:50pm 11ft 16s 8s 27 31 mph 1019.2mb 54f 55f
9:50pm 11.5ft 16s 8s 29 36 mph 1019.2mb 54f 55f
8:50pm 12ft 16s 8s 27 31 mph 1019.2mb 54f 56f
7:50pm 11.5ft 16s 8s 29 34 mph 1018.5mb 54f 56f
6:50pm 13.5ft 16s 8s 29 36 mph 1018.6mb 55f 56f
5:50pm 11ft 16s 8s 22 29 mph 1018.7mb 55f 56f
4:50pm 11ft 16s 8s 27 34 mph 1018.9mb 55f 56f
3:50pm 13ft 16s 8s 25 31 mph 1019.4mb 55f 56f
2:50pm 10.5ft 17s 8s 22 29 mph 1020mb 55f 56f
1:50pm 10.5ft 16s 8s 22 29 mph 1020.6mb 55f 56f
12:50pm 11ft 16s 8s 22 27 mph 1020.7mb 55f 56f
11:50am 10.5ft 16s 8s 16 20 mph 1021.1mb 55f 56f
10:50am 11ft 16s 8s 13 16 mph 1020.8mb 55f 56f
9:50am 11.5ft 16s 8s 20 25 mph 1020.5mb 55f 56f
8:50am 11ft 16s 8s 20 25 mph 1020.7mb 55f 56f
7:50am 10.5ft 16s 8s 18 22 mph 1020.6mb 55f 56f
6:50am 13ft 16s 9s 20 25 mph 1020.2mb 55f 56f
5:50am 11.5ft 16s 9s 20 25 mph 1020.1mb 55f 56f
4:50am 13ft 16s 9s 22 27 mph 1020mb 55f 56f
3:50am 13.5ft 16s 9s 22 27 mph 1020mb 55f 56f
2:50am 12.5ft 17s 9s 20 25 mph 1020.3mb 55f 56f
1:50am 13ft 17s 9s 20 22 mph 1020.6mb 55f 56f
12:50am 13ft 17s 9s 22 27 mph 1020.7mb 55f 56f
Tue 03/28 11:50pm 12.5ft 17s 9s 25 29 mph 1020.7mb 55f 57f
10:50pm 14ft 17s 9s 25 31 mph 1020.8mb 55f 57f
9:50pm 15.5ft 17s 9s 25 31 mph 1021mb 55f 57f
8:50pm 15.5ft 17s 9s 27 34 mph 1020.5mb 55f 57f
7:50pm 14ft 17s 9s 29 36 mph 1019.9mb 55f 57f
6:50pm 14ft 17s 8s 29 36 mph 1019.3mb 55f 57f
5:50pm 14.5ft 17s 8s 29 34 mph 1019.2mb 55f 57f
4:50pm 14.5ft 17s 8s 27 36 mph 1019.4mb 55f 56f
3:50pm 14ft 17s 8s 29 36 mph 1019.8mb 55f 56f
2:50pm 13.5ft 17s 8s 29 34 mph 1020.1mb 55f 56f
1:50pm 13ft 11s 8s 31 36 mph 1020.3mb 55f 56f
12:50pm 12ft 17s 8s 29 36 mph 1020.8mb 55f 56f
11:50am 11.5ft 10s 8s 27 31 mph 1021.3mb 55f 56f
10:50am 10.5ft 17s 7s 27 31 mph 1022.2mb 55f 56f
7:50am 12ft 19s 8s 29 36 mph 1021.4mb 55f 55f
6:50am 11.5ft 8s 7s 27 31 mph 1020.9mb 55f 55f
5:50am 11.5ft 19s 8s 25 29 mph 1020.7mb 55f 55f
4:50am 11.5ft 19s 7s 29 36 mph 1020.5mb 55f 55f
3:50am 11ft 9s 7s 25 29 mph 1020.6mb 55f 55f
2:50am 11.5ft 8s 7s 27 36 mph 1021.3mb 55f 55f
1:50am 11.5ft 9s 7s 27 34 mph 1021.8mb 55f 55f
12:50am 11ft 8s 7s 29 36 mph 1022.1mb 55f 55f
Mon 03/27 11:50pm 12ft 9s 7s 29 34 mph 1022.5mb 55f 55f
10:50pm 11.5ft 9s 7s 29 36 mph 1022.5mb 55f 55f
9:50pm 11ft 8s 7s 31 38 mph 1022.7mb 55f 55f
8:50pm 10ft 8s 7s 29 36 mph 1022.8mb 55f 55f
7:50pm 9.5ft 8s 6s 29 36 mph 1021.9mb 55f 55f
6:50pm 10ft 7s 6s 27 34 mph 1022mb 55f 55f
5:50pm 9.5ft 6s 6s 29 34 mph 1021.8mb 55f 56f
4:50pm 9ft 7s 6s 27 38 mph 1022mb 55f 56f
3:50pm 8.5ft 7s 6s 29 38 mph 1022.8mb 56f 56f
2:50pm 8ft 12s 6s 29 36 mph 1022.6mb 56f 56f
1:50pm 7.5ft 7s 6s 27 34 mph 1022.6mb 56f 56f
12:50pm 7ft 6s 6s 25 31 mph 1022.7mb 55f 56f
11:50am 7ft 12s 6s 25 29 mph 1022.3mb 55f 56f
10:50am 6.5ft 11s 6s 22 27 mph 1022.6mb 55f 56f
9:50am 7ft 11s 6s 18 20 mph 1022.8mb 55f 55f
8:50am 7ft 7s 6s 22 27 mph 1022.2mb 55f 56f
7:50am 7.5ft 11s 6s 25 29 mph 1021.6mb 55f 56f
6:50am 7ft 10s 6s 25 29 mph 1020.3mb 55f 56f
5:50am 7ft 12s 6s 25 29 mph 1020.2mb 55f 56f
4:50am 6.5ft 13s 7s 22 27 mph 1019.6mb 55f 56f
3:50am 6.5ft 11s 7s 20 25 mph 1019.1mb 55f 56f
2:50am 6ft 9s 7s 20 22 mph 1019.7mb 55f 56f
1:50am 6.5ft 11s 8s 20 22 mph 1019.6mb 55f 56f
12:50am 6ft 12s 9s 22 27 mph 1019.3mb 56f 55f
Sun 03/26 11:50pm 6ft 12s 9s 13 16 mph 1019.2mb 56f 57f
10:50pm 5.5ft 12s 9s 7 9 mph 1019.7mb 56f 57f
9:50pm 6ft 11s 9s 4
mph
1019.6mb 56f 56f
8:50pm 5.5ft 13s 9s 7 9 mph 1019.6mb 56f 57f
7:50pm 6ft 11s 9s 9 11 mph 1019.4mb 56f 57f
6:50pm 6ft 11s 8s 7 9 mph 1019.5mb 56f 57f
5:50pm 7ft 12s 9s 9 11 mph 1019.4mb 56f 57f
4:50pm 7ft 13s 9s 7
mph
1019.7mb 56f 57f